createdAt,value
2023-03-26T00:01:23.944Z,73.81
2023-03-26T00:03:53.946Z,73.81
2023-03-26T00:06:25.771Z,73.66
2023-03-26T00:08:53.424Z,73.82
2023-03-26T00:11:22.201Z,73.60
2023-03-26T00:13:49.296Z,73.59
2023-03-26T00:16:18.265Z,73.55
2023-03-26T00:18:47.348Z,73.86
2023-03-26T00:21:17.119Z,73.72
2023-03-26T00:23:44.387Z,73.43
2023-03-26T00:26:11.382Z,73.29
2023-03-26T00:28:40.630Z,73.23
2023-03-26T00:31:11.288Z,72.89
2023-03-26T00:33:40.669Z,72.76
2023-03-26T00:36:10.821Z,72.50
2023-03-26T00:38:39.174Z,72.28
2023-03-26T00:41:25.707Z,72.05
2023-03-26T00:43:56.437Z,72.14
2023-03-26T00:46:24.873Z,72.02
2023-03-26T00:48:51.607Z,71.93
2023-03-26T00:51:20.666Z,71.89
2023-03-26T00:53:49.278Z,71.64
2023-03-26T00:56:16.594Z,71.32
2023-03-26T00:58:43.475Z,71.21
2023-03-26T01:01:14.063Z,71.25
2023-03-26T01:03:50.184Z,71.33
2023-03-26T01:06:32.943Z,71.26
2023-03-26T01:09:05.628Z,71.21
2023-03-26T01:11:34.845Z,70.88
2023-03-26T01:14:14.766Z,70.82
2023-03-26T01:16:45.158Z,70.64
2023-03-26T01:19:47.824Z,70.73
2023-03-26T01:22:20.965Z,71.18
2023-03-26T01:24:53.281Z,70.99
2023-03-26T01:27:24.552Z,71.04
2023-03-26T01:30:12.932Z,70.83
2023-03-26T01:32:59.155Z,70.83
2023-03-26T01:35:51.265Z,70.99
2023-03-26T01:38:29.590Z,70.94
2023-03-26T01:41:04.735Z,71.10
2023-03-26T01:43:54.418Z,70.71
2023-03-26T01:46:23.934Z,70.94
2023-03-26T01:48:51.409Z,71.08
2023-03-26T01:51:33.868Z,71.21
2023-03-26T01:54:04.012Z,71.13
2023-03-26T01:56:42.870Z,70.85
2023-03-26T01:59:24.284Z,70.62
2023-03-26T02:01:54.939Z,70.48
2023-03-26T02:04:39.832Z,70.80
2023-03-26T02:07:14.860Z,70.57
2023-03-26T02:09:49.979Z,70.15
2023-03-26T02:12:18.488Z,69.78
2023-03-26T02:14:46.008Z,70.06
2023-03-26T02:17:12.695Z,69.81
2023-03-26T02:19:42.271Z,69.57
2023-03-26T02:22:15.775Z,69.29
2023-03-26T02:24:43.691Z,69.63
2023-03-26T02:27:12.349Z,69.33
2023-03-26T02:29:39.999Z,69.21
2023-03-26T02:32:08.211Z,69.28
2023-03-26T02:34:34.808Z,69.13
2023-03-26T02:37:01.373Z,69.56
2023-03-26T02:39:27.974Z,69.17
2023-03-26T02:41:54.588Z,69.42
2023-03-26T02:44:21.272Z,69.00
2023-03-26T02:46:47.810Z,69.62
2023-03-26T02:49:14.575Z,69.72
2023-03-26T02:51:41.100Z,69.83
2023-03-26T02:54:07.690Z,69.98
2023-03-26T02:56:34.277Z,70.20
2023-03-26T02:59:01.036Z,70.49
2023-03-26T03:01:31.037Z,71.19
2023-03-26T03:03:57.756Z,71.53
2023-03-26T03:06:26.506Z,71.50
2023-03-26T03:08:54.158Z,71.58
2023-03-26T03:11:26.566Z,71.12
2023-03-26T03:13:53.280Z,71.21
2023-03-26T03:16:20.723Z,71.09
2023-03-26T03:18:54.355Z,71.79
2023-03-26T03:21:22.341Z,71.49
2023-03-26T03:23:49.044Z,72.36
2023-03-26T03:26:21.675Z,72.41
2023-03-26T03:28:49.773Z,72.80
2023-03-26T03:31:17.795Z,73.17
2023-03-26T03:33:46.341Z,73.22
2023-03-26T03:36:19.894Z,73.59
2023-03-26T03:38:49.357Z,73.75
2023-03-26T03:41:18.464Z,73.90
2023-03-26T03:43:45.698Z,74.18
2023-03-26T03:46:12.277Z,74.75
2023-03-26T03:48:39.242Z,75.09
2023-03-26T03:51:06.366Z,74.82
2023-03-26T03:53:37.155Z,75.36
2023-03-26T03:56:04.804Z,75.73
2023-03-26T03:58:31.401Z,75.75
2023-03-26T04:01:01.033Z,76.18
2023-03-26T04:03:34.166Z,76.23
2023-03-26T04:06:01.599Z,76.08
2023-03-26T04:08:28.255Z,75.84
2023-03-26T04:10:54.873Z,76.17
2023-03-26T04:13:21.610Z,76.05
2023-03-26T04:15:48.396Z,76.43
2023-03-26T04:18:15.359Z,76.24
2023-03-26T04:20:47.382Z,76.83
2023-03-26T04:23:14.624Z,76.87
2023-03-26T04:25:53.621Z,76.13
2023-03-26T04:28:36.423Z,76.33
2023-03-26T04:31:06.513Z,75.49
2023-03-26T04:33:34.799Z,74.83
2023-03-26T04:36:03.077Z,74.09
2023-03-26T04:38:33.595Z,73.82
2023-03-26T04:41:03.295Z,73.67
2023-03-26T04:43:31.330Z,74.36
2023-03-26T04:45:58.075Z,74.26
2023-03-26T04:48:24.735Z,74.79
2023-03-26T04:50:51.529Z,75.13
2023-03-26T04:53:21.326Z,75.67
2023-03-26T04:56:01.455Z,75.87
2023-03-26T04:58:30.164Z,76.45
2023-03-26T05:00:57.375Z,78.06
2023-03-26T05:03:24.088Z,77.51
2023-03-26T05:05:51.492Z,76.01
2023-03-26T05:08:18.016Z,73.79
2023-03-26T05:10:44.604Z,72.15
2023-03-26T05:13:11.412Z,71.16
2023-03-26T05:15:37.962Z,70.22
2023-03-26T05:18:04.632Z,69.73
2023-03-26T05:20:31.532Z,69.14
2023-03-26T05:22:58.247Z,68.50
2023-03-26T05:25:24.885Z,67.86
2023-03-26T05:27:51.378Z,67.74
2023-03-26T05:30:20.789Z,67.91
2023-03-26T05:32:49.245Z,67.42
2023-03-26T05:35:19.481Z,67.70
2023-03-26T05:37:47.413Z,68.05
2023-03-26T05:40:17.078Z,69.04
2023-03-26T05:42:45.533Z,69.16
2023-03-26T05:45:14.349Z,69.42
2023-03-26T05:47:41.303Z,69.33
2023-03-26T05:50:09.435Z,69.97
2023-03-26T05:52:36.148Z,70.19
2023-03-26T05:55:03.455Z,71.24
2023-03-26T05:57:31.192Z,72.33
2023-03-26T05:59:57.853Z,71.14
2023-03-26T06:02:24.483Z,72.22
2023-03-26T06:04:51.238Z,72.09
2023-03-26T06:07:19.882Z,71.91
2023-03-26T06:09:46.722Z,71.76
2023-03-26T06:12:13.423Z,72.71
2023-03-26T06:14:42.767Z,73.66
2023-03-26T06:17:10.327Z,75.58
2023-03-26T06:19:37.586Z,76.29
2023-03-26T06:22:04.980Z,77.27
2023-03-26T06:24:32.382Z,77.12
2023-03-26T06:26:58.899Z,76.86
2023-03-26T06:29:25.715Z,76.42
2023-03-26T06:31:52.411Z,76.19
2023-03-26T06:34:19.092Z,76.53
2023-03-26T06:36:45.699Z,77.06
2023-03-26T06:39:12.295Z,77.52
2023-03-26T06:41:38.840Z,77.94
2023-03-26T06:44:05.340Z,78.28
2023-03-26T06:46:32.282Z,78.81
2023-03-26T06:48:59.653Z,79.30
2023-03-26T06:51:26.327Z,79.36
2023-03-26T06:53:52.972Z,79.47
2023-03-26T06:56:19.541Z,79.62
2023-03-26T06:58:46.098Z,79.20
2023-03-26T07:01:12.721Z,79.42
2023-03-26T07:03:39.380Z,78.86
2023-03-26T07:06:06.182Z,78.89
2023-03-26T07:08:32.709Z,79.04
2023-03-26T07:10:59.431Z,78.97
2023-03-26T07:13:26.158Z,79.28
2023-03-26T07:15:52.695Z,79.25
2023-03-26T07:18:19.244Z,79.59
2023-03-26T07:20:46.514Z,79.23
2023-03-26T07:23:15.613Z,79.00
2023-03-26T07:25:42.386Z,78.42
2023-03-26T07:28:27.274Z,78.17
2023-03-26T07:31:21.493Z,77.84
2023-03-26T07:34:08.430Z,77.96
2023-03-26T07:36:50.407Z,76.86
2023-03-26T07:39:44.910Z,76.81
2023-03-26T07:42:46.443Z,76.75
2023-03-26T07:45:26.854Z,77.07
2023-03-26T07:47:53.873Z,75.67
2023-03-26T07:50:22.861Z,74.52
2023-03-26T07:52:50.983Z,74.97
2023-03-26T07:55:18.398Z,74.62
2023-03-26T07:58:11.708Z,74.43
2023-03-26T08:01:02.819Z,73.82
2023-03-26T08:03:50.944Z,74.21
2023-03-26T08:06:28.157Z,74.04
2023-03-26T08:09:08.327Z,73.55
2023-03-26T08:11:46.119Z,72.57
2023-03-26T08:14:30.277Z,71.64
2023-03-26T08:16:59.989Z,71.82
2023-03-26T08:19:42.030Z,72.11
2023-03-26T08:22:12.055Z,70.87
2023-03-26T08:24:57.301Z,70.34
2023-03-26T08:27:43.775Z,69.77
2023-03-26T08:30:19.376Z,68.51
2023-03-26T08:32:57.636Z,68.25
2023-03-26T08:35:25.647Z,67.90
2023-03-26T08:37:52.434Z,67.54
2023-03-26T08:40:46.800Z,67.97
2023-03-26T08:44:05.136Z,66.79
2023-03-26T08:46:37.419Z,67.61
2023-03-26T08:49:03.961Z,66.33
2023-03-26T08:51:50.987Z,66.35
2023-03-26T08:54:23.166Z,68.34
2023-03-26T08:57:42.552Z,68.58
2023-03-26T09:00:35.676Z,69.45
2023-03-26T09:03:27.910Z,69.36
2023-03-26T09:06:35.827Z,70.12
2023-03-26T09:09:31.482Z,69.96
2023-03-26T09:11:57.946Z,70.74
2023-03-26T09:14:46.129Z,70.51
2023-03-26T09:17:48.987Z,69.95
2023-03-26T09:20:27.699Z,70.69
2023-03-26T09:23:45.284Z,71.38
2023-03-26T09:26:11.816Z,72.07
2023-03-26T09:29:17.074Z,71.55
2023-03-26T09:32:17.201Z,71.29
2023-03-26T09:35:13.607Z,71.05
2023-03-26T09:37:56.819Z,69.04
2023-03-26T09:40:42.478Z,68.33
2023-03-26T09:43:09.008Z,68.17
2023-03-26T09:45:52.595Z,67.38
2023-03-26T09:48:48.443Z,67.04
2023-03-26T09:51:39.439Z,67.32
2023-03-26T09:54:30.576Z,66.07
2023-03-26T09:56:59.857Z,65.77
2023-03-26T09:59:55.703Z,65.11
2023-03-26T10:02:47.568Z,65.71
2023-03-26T10:05:39.069Z,64.01
2023-03-26T10:08:08.878Z,65.18
2023-03-26T10:10:56.479Z,64.88
2023-03-26T10:13:49.489Z,64.75
2023-03-26T10:16:22.251Z,65.01
2023-03-26T10:19:31.259Z,64.37
2023-03-26T10:22:20.439Z,65.01
2023-03-26T10:24:59.161Z,64.06
2023-03-26T10:27:25.775Z,64.43
2023-03-26T10:30:10.770Z,65.11
2023-03-26T10:33:05.069Z,63.36
2023-03-26T10:35:38.898Z,64.01
2023-03-26T10:38:48.695Z,62.59
2023-03-26T10:41:52.470Z,62.56
2023-03-26T10:44:37.150Z,63.16
2023-03-26T10:47:37.444Z,61.29
2023-03-26T10:50:23.928Z,60.08
2023-03-26T10:53:15.844Z,59.80
2023-03-26T10:55:46.740Z,59.90
2023-03-26T10:58:13.213Z,59.36
2023-03-26T11:00:48.377Z,59.22
2023-03-26T11:03:44.016Z,57.35
2023-03-26T11:06:16.396Z,57.12
2023-03-26T11:09:04.297Z,57.32
2023-03-26T11:11:41.652Z,57.67
2023-03-26T11:14:27.913Z,57.08
2023-03-26T11:17:40.900Z,56.71
2023-03-26T11:20:16.002Z,57.92
2023-03-26T11:23:01.302Z,58.12
2023-03-26T11:25:52.777Z,57.07
2023-03-26T11:28:29.569Z,56.27
2023-03-26T11:30:59.448Z,55.03
2023-03-26T11:33:37.967Z,56.90
2023-03-26T11:36:18.700Z,55.45
2023-03-26T11:38:49.227Z,55.46
2023-03-26T11:41:22.737Z,54.92
2023-03-26T11:43:55.840Z,54.29
2023-03-26T11:46:25.354Z,53.00
2023-03-26T11:49:07.692Z,54.53
2023-03-26T11:51:38.863Z,53.05
2023-03-26T11:54:08.059Z,53.18
2023-03-26T11:57:04.438Z,52.95
2023-03-26T11:59:55.888Z,52.74
2023-03-26T12:02:34.160Z,51.86
2023-03-26T12:05:26.611Z,52.10
2023-03-26T12:07:57.254Z,50.46
2023-03-26T12:11:01.280Z,51.03
2023-03-26T12:13:36.212Z,52.30
2023-03-26T12:16:18.379Z,52.24
2023-03-26T12:18:45.913Z,52.62
2023-03-26T12:21:18.184Z,52.51
2023-03-26T12:23:51.212Z,52.23
2023-03-26T12:26:36.200Z,52.31
2023-03-26T12:29:14.960Z,53.12
2023-03-26T12:31:56.473Z,53.66
2023-03-26T12:34:43.313Z,53.34
2023-03-26T12:37:37.045Z,54.12
2023-03-26T12:40:25.924Z,52.54
2023-03-26T12:44:53.052Z,50.17
2023-03-26T12:45:43.354Z,49.76
2023-03-26T12:48:13.098Z,49.44
2023-03-26T12:51:17.027Z,50.36
2023-03-26T12:53:43.519Z,50.15
2023-03-26T12:56:38.586Z,50.37
2023-03-26T12:59:34.348Z,50.94
2023-03-26T13:02:21.746Z,51.62
2023-03-26T13:05:04.972Z,51.81
2023-03-26T13:07:52.018Z,53.87
2023-03-26T13:10:24.843Z,53.73
2023-03-26T13:12:57.978Z,54.48
2023-03-26T13:15:49.373Z,54.33
2023-03-26T13:18:33.680Z,54.61
2023-03-26T13:21:21.967Z,54.90
2023-03-26T13:23:48.509Z,54.61
2023-03-26T13:26:42.908Z,55.04
2023-03-26T13:29:25.063Z,55.36
2023-03-26T13:31:54.483Z,55.45
2023-03-26T13:34:33.972Z,55.70
2023-03-26T13:37:18.653Z,55.50
2023-03-26T13:40:05.009Z,55.79
2023-03-26T13:43:13.016Z,54.05
2023-03-26T13:45:42.429Z,53.72
2023-03-26T13:48:16.398Z,52.42
2023-03-26T13:50:49.823Z,53.34
2023-03-26T13:53:24.866Z,53.91
2023-03-26T13:55:58.514Z,54.21
2023-03-26T13:58:34.349Z,55.19
2023-03-26T14:01:09.565Z,58.94
2023-03-26T14:04:00.451Z,61.42
2023-03-26T14:06:29.865Z,63.32
2023-03-26T14:09:04.829Z,64.23
2023-03-26T14:11:56.751Z,64.94
2023-03-26T14:14:29.437Z,66.35
2023-03-26T14:17:28.592Z,67.07
2023-03-26T14:20:24.136Z,69.11
2023-03-26T14:23:32.625Z,69.46
2023-03-26T14:26:20.991Z,69.07
2023-03-26T14:29:21.870Z,69.38
2023-03-26T14:32:00.494Z,70.17
2023-03-26T14:34:49.781Z,68.54
2023-03-26T14:37:28.221Z,68.31
2023-03-26T14:40:14.710Z,67.40
2023-03-26T14:42:46.056Z,66.67
2023-03-26T14:45:41.918Z,66.53
2023-03-26T14:48:26.866Z,66.23
2023-03-26T14:51:18.438Z,65.33
2023-03-26T14:53:50.446Z,65.86
2023-03-26T14:56:35.721Z,65.72
2023-03-26T14:59:33.116Z,65.45
2023-03-26T15:02:18.452Z,65.32
2023-03-26T15:04:53.983Z,64.80
2023-03-26T15:07:48.264Z,64.90
2023-03-26T15:10:59.617Z,65.20
2023-03-26T15:14:05.332Z,64.94
2023-03-26T15:16:59.335Z,64.87
2023-03-26T15:19:44.221Z,64.81
2023-03-26T15:22:56.140Z,65.22
2023-03-26T15:25:44.440Z,65.71
2023-03-26T15:28:48.754Z,65.11
2023-03-26T15:31:42.665Z,65.17
2023-03-26T15:34:34.222Z,65.43
2023-03-26T15:37:17.203Z,65.52
2023-03-26T15:40:09.807Z,65.10
2023-03-26T15:42:58.149Z,66.04
2023-03-26T15:45:36.889Z,66.41
2023-03-26T15:48:21.812Z,66.49
2023-03-26T15:50:58.804Z,66.09
2023-03-26T15:53:54.877Z,65.87
2023-03-26T15:56:54.243Z,66.58
2023-03-26T15:59:21.901Z,66.48
2023-03-26T16:01:51.524Z,67.29
2023-03-26T16:04:30.264Z,67.78
2023-03-26T16:07:04.140Z,68.13
2023-03-26T16:09:53.752Z,68.63
2023-03-26T16:12:26.300Z,67.66
2023-03-26T16:15:35.244Z,66.86
2023-03-26T16:18:12.037Z,66.91
2023-03-26T16:20:50.920Z,66.35
2023-03-26T16:23:33.524Z,65.81
2023-03-26T16:26:23.106Z,65.39
2023-03-26T16:28:52.912Z,64.76
2023-03-26T16:31:57.867Z,65.28
2023-03-26T16:34:57.291Z,66.02
2023-03-26T16:37:36.329Z,66.53
2023-03-26T16:40:18.543Z,66.90
2023-03-26T16:43:22.608Z,66.66
2023-03-26T16:46:05.803Z,67.28
2023-03-26T16:48:41.299Z,67.83
2023-03-26T16:51:19.843Z,67.35
2023-03-26T16:54:00.221Z,67.70
2023-03-26T16:56:36.105Z,67.92
2023-03-26T16:59:26.704Z,68.75
2023-03-26T17:02:06.954Z,69.20
2023-03-26T17:04:35.589Z,69.62
2023-03-26T17:07:24.102Z,69.64
2023-03-26T17:10:14.879Z,69.76
2023-03-26T17:12:51.409Z,70.32
2023-03-26T17:15:29.037Z,70.98
2023-03-26T17:18:17.159Z,71.25
2023-03-26T17:20:59.689Z,71.68
2023-03-26T17:23:39.875Z,71.63
2023-03-26T17:26:19.712Z,72.06
2023-03-26T17:28:46.496Z,72.27
2023-03-26T17:31:23.662Z,72.72
2023-03-26T17:33:50.747Z,73.00
2023-03-26T17:36:24.168Z,73.19
2023-03-26T17:38:50.718Z,73.92
2023-03-26T17:42:10.494Z,73.79
2023-03-26T17:44:53.292Z,73.73
2023-03-26T17:47:23.668Z,73.87
2023-03-26T17:49:54.912Z,73.83
2023-03-26T17:52:29.825Z,73.84
2023-03-26T17:54:57.112Z,74.01
2023-03-26T17:57:41.905Z,74.22
2023-03-26T18:00:16.790Z,74.36
2023-03-26T18:02:50.564Z,74.20
2023-03-26T18:05:17.676Z,74.11
2023-03-26T18:08:03.916Z,74.31
2023-03-26T18:10:45.899Z,74.23
2023-03-26T18:13:23.259Z,74.26
2023-03-26T18:16:11.157Z,74.47
2023-03-26T18:18:48.594Z,74.17
2023-03-26T18:21:24.333Z,74.66
2023-03-26T18:23:51.307Z,74.50
2023-03-26T18:26:34.405Z,74.40
2023-03-26T18:29:25.654Z,74.90
2023-03-26T18:32:00.834Z,74.75
2023-03-26T18:34:30.835Z,74.72
2023-03-26T18:37:16.579Z,74.70
2023-03-26T18:40:14.568Z,74.77
2023-03-26T18:42:45.649Z,73.99
2023-03-26T18:45:37.732Z,73.61
2023-03-26T18:48:06.358Z,72.73
2023-03-26T18:50:37.328Z,70.68
2023-03-26T18:53:08.528Z,70.19
2023-03-26T18:55:39.571Z,69.95
2023-03-26T18:58:27.620Z,70.03
2023-03-26T19:01:00.584Z,70.23
2023-03-26T19:03:32.104Z,70.03
2023-03-26T19:05:59.354Z,70.51
2023-03-26T19:08:26.103Z,70.71
2023-03-26T19:10:54.567Z,71.19
2023-03-26T19:13:21.922Z,71.51
2023-03-26T19:15:52.091Z,72.47
2023-03-26T19:18:28.721Z,72.80
2023-03-26T19:20:58.817Z,72.86
2023-03-26T19:23:31.726Z,73.51
2023-03-26T19:26:01.733Z,73.17
2023-03-26T19:28:32.817Z,73.80
2023-03-26T19:31:16.032Z,74.46
2023-03-26T19:33:44.369Z,74.36
2023-03-26T19:36:13.910Z,75.01
2023-03-26T19:38:55.075Z,75.39
2023-03-26T19:41:25.753Z,75.72
2023-03-26T19:43:59.155Z,75.66
2023-03-26T19:46:27.787Z,76.02
2023-03-26T19:48:56.772Z,76.33
2023-03-26T19:51:35.774Z,76.51
2023-03-26T19:54:16.782Z,76.83
2023-03-26T19:56:43.631Z,76.55
2023-03-26T19:59:10.243Z,76.59
2023-03-26T20:01:36.929Z,76.80
2023-03-26T20:04:06.598Z,77.06
2023-03-26T20:06:43.931Z,77.04
2023-03-26T20:09:12.887Z,77.25
2023-03-26T20:11:40.775Z,77.25
2023-03-26T20:14:16.162Z,76.89
2023-03-26T20:16:45.281Z,77.27
2023-03-26T20:19:14.196Z,77.15
2023-03-26T20:21:41.760Z,77.09
2023-03-26T20:24:14.688Z,76.56
2023-03-26T20:26:41.585Z,76.99
2023-03-26T20:29:08.193Z,76.98
2023-03-26T20:31:34.751Z,77.07
2023-03-26T20:34:01.439Z,76.92
2023-03-26T20:36:33.111Z,76.77
2023-03-26T20:39:05.612Z,76.91
2023-03-26T20:41:33.780Z,76.82
2023-03-26T20:44:01.016Z,76.89
2023-03-26T20:46:30.582Z,76.71
2023-03-26T20:48:59.579Z,76.44
2023-03-26T20:51:28.725Z,75.84
2023-03-26T20:53:56.375Z,76.02
2023-03-26T20:56:23.469Z,75.82
2023-03-26T20:59:03.501Z,75.71
2023-03-26T21:01:34.970Z,75.50
2023-03-26T21:04:04.309Z,75.81
2023-03-26T21:06:31.089Z,76.03
2023-03-26T21:08:57.892Z,75.47
2023-03-26T21:11:52.165Z,75.75
2023-03-26T21:14:22.438Z,75.95
2023-03-26T21:16:49.437Z,75.66
2023-03-26T21:19:16.274Z,75.66
2023-03-26T21:22:04.827Z,75.66
2023-03-26T21:24:37.790Z,75.76
2023-03-26T21:27:37.326Z,75.50
2023-03-26T21:30:13.787Z,75.83
2023-03-26T21:32:41.479Z,75.82
2023-03-26T21:35:08.865Z,75.46
2023-03-26T21:37:35.698Z,75.26
2023-03-26T21:40:12.661Z,74.92
2023-03-26T21:42:39.410Z,75.26
2023-03-26T21:45:06.837Z,74.96
2023-03-26T21:47:33.754Z,74.96
2023-03-26T21:50:00.539Z,74.87
2023-03-26T21:52:27.990Z,74.82
2023-03-26T21:54:54.910Z,73.99
2023-03-26T21:57:40.093Z,74.31
2023-03-26T22:00:27.884Z,74.32
2023-03-26T22:03:26.599Z,74.17
2023-03-26T22:06:11.386Z,74.25
2023-03-26T22:08:40.081Z,74.38
2023-03-26T22:11:08.127Z,74.11
2023-03-26T22:13:38.629Z,74.01
2023-03-26T22:16:07.328Z,74.01
2023-03-26T22:18:34.775Z,74.03
2023-03-26T22:21:01.665Z,74.13
2023-03-26T22:23:34.312Z,73.94
2023-03-26T22:26:00.958Z,73.67
2023-03-26T22:28:27.717Z,73.57
2023-03-26T22:30:54.505Z,72.72
2023-03-26T22:33:21.530Z,72.68
2023-03-26T22:35:48.135Z,72.19
2023-03-26T22:38:17.093Z,71.01
2023-03-26T22:40:43.748Z,70.73
2023-03-26T22:43:10.306Z,69.57
2023-03-26T22:45:37.752Z,69.29
2023-03-26T22:48:04.832Z,69.41
2023-03-26T22:50:32.440Z,70.11
2023-03-26T22:52:59.020Z,69.63
2023-03-26T22:55:28.776Z,69.21
2023-03-26T22:57:56.866Z,69.32
2023-03-26T23:00:23.568Z,69.60
2023-03-26T23:02:50.189Z,69.92
2023-03-26T23:05:19.803Z,69.59
2023-03-26T23:07:46.668Z,70.31
2023-03-26T23:10:13.681Z,70.19
2023-03-26T23:12:40.429Z,70.32
2023-03-26T23:15:08.084Z,69.52
2023-03-26T23:17:36.139Z,70.04
2023-03-26T23:20:06.182Z,70.35
2023-03-26T23:22:35.275Z,69.52
2023-03-26T23:25:02.063Z,69.89
2023-03-26T23:27:28.634Z,69.86
2023-03-26T23:29:55.883Z,69.83
2023-03-26T23:32:25.251Z,68.75
2023-03-26T23:34:52.528Z,68.45
2023-03-26T23:37:23.329Z,67.73
2023-03-26T23:39:51.108Z,66.92
2023-03-26T23:42:28.830Z,66.73
2023-03-26T23:44:57.244Z,66.38
2023-03-26T23:47:24.202Z,66.92
2023-03-26T23:49:51.035Z,66.33
2023-03-26T23:52:17.603Z,66.12
2023-03-26T23:54:45.159Z,65.98
2023-03-26T23:57:11.924Z,65.60
2023-03-26T23:59:38.699Z,65.31
